Badgeworth, United Kingdom
Current Conditions -  °F | °C
As of 8:20 AM on Saturday 20 Dec 2014 (Local Time) from EGBJ Reporting Station
Broken Clouds Broken Clouds  
Wind Chill: 40°   Ceiling: 2800
Heat Index: 46°   Visibility: 6mi
Dew Point: 37°   Wind: 15mph
Humidity: 71%   Direction: 270°W
Pressure: 30.24"   Gusts: NA
Location:  51.91°N, 2.11°W
Report Text: EGBJ 200820Z 27013KT 9999 FEW020 BKN028 08/03 Q1024
Loading
Personal Weather Stations






























Interactive Weather Map New forecast layout! Learn more

10-Day Weather Forecast

Advertisements
Track Severe Weather on mobile